Latest Weather Observations for Maroochydore

IDQ60901

Issued at 2:21 pm EST Monday 30 March 2015 (issued every 10 minutes, with the page automatically refreshed every 10 minutes)

About weather observations | Map of Brisbane area stations | Latest observations for Brisbane area | Other Formats
Station Details ID: 040861 Name: SUNSHINE COAST AIRPORT Lat: -26.60 Lon: 153.09 Height: 3.3 m
Data from the previous 72 hours. | See also: Recent months at Maroochydore
Date/Time
EST
Tmp

°C
App
Tmp
°C
Dew
Point
°C
Rel
Hum
%
Delta-T

°C
Wind Press
QNH
hPa
Press
MSL
hPa
Rain
since
9 am
mm
Dir
 
Spd
km/h
Gust
km/h
Spd
kts
Gust
kts
30/02:00pm 26.5 25.5 16.7 55 6.1 E 17 20 9 11 1020.8 - 0.0
30/01:30pm 26.4 25.2 16.0 52 6.4 ENE 17 22 9 12 1021.2 - 0.0
30/01:00pm 28.1 26.9 17.0 51 6.9 E 19 24 10 13 1021.6 - 0.0
30/12:30pm 27.6 26.6 17.5 54 6.4 ENE 19 24 10 13 1021.8 - 0.0
30/12:00pm 27.5 26.2 16.8 52 6.6 E 19 22 10 12 1022.3 1022.3 0.0
30/11:30am 27.9 27.0 16.8 50 6.9 ENE 17 24 9 13 1022.9 - 0.0
30/11:00am 27.4 26.6 17.0 53 6.5 E 17 20 9 11 1023.5 - 0.0
30/10:30am 28.1 27.4 17.3 52 6.8 ENE 17 22 9 12 1023.8 - 0.0
30/10:00am 27.0 26.1 17.8 57 5.8 ENE 19 24 10 13 1023.6 - 0.0
30/09:30am 26.9 25.6 16.8 54 6.3 E 19 24 10 13 1023.6 - 0.0
30/09:00am 26.6 26.3 17.4 57 5.7 E 15 20 8 11 1023.6 1023.6 0.0
30/08:30am 25.1 24.0 17.3 62 4.9 E 19 26 10 14 1023.4 - 0.0
30/08:00am 24.8 24.2 17.5 64 4.6 E 17 22 9 12 1023.3 - 0.0
30/07:30am 24.8 23.9 16.8 61 4.9 E 17 20 9 11 1023.2 - 0.0
30/07:00am 24.5 23.6 17.7 66 4.2 E 19 24 10 13 1022.5 - 0.0
30/06:30am 24.2 24.3 17.4 65 4.2 E 13 19 7 10 1022.3 - 0.0
30/05:30am 23.8 23.2 17.5 68 3.9 E 17 20 9 11 1021.4 - 0.0
30/05:00am 23.8 23.2 17.5 68 3.9 ENE 17 22 9 12 1021.3 - 0.0
30/04:30am 23.5 22.7 17.0 67 4.0 ENE 17 22 9 12 1021.0 - 0.0
30/04:00am 23.6 22.5 17.8 70 3.6 E 20 24 11 13 1020.9 - 0.0
30/03:30am 23.1 22.1 17.6 71 3.4 ENE 19 22 10 12 1020.9 - 0.0
30/03:00am 20.7 21.6 18.3 86 1.5 NE 11 19 6 10 1021.2 1021.2 0.0
30/02:30am 19.4 20.5 17.2 87 1.3 WNW 7 11 4 6 1021.5 - 0.0
30/02:00am 20.4 21.6 16.8 80 2.2 NW 6 9 3 5 1021.6 - 0.0
30/01:30am 22.9 23.0 18.4 76 2.8 ENE 15 20 8 11 1021.7 - 0.0
30/01:00am 19.2 20.4 17.3 89 1.2 WNW 7 11 4 6 1021.9 - 0.0
30/12:30am 19.5 20.8 17.6 89 1.2 W 7 13 4 7 1022.3 - 0.0
 
Date/Time
EST
Tmp

°C
App
Tmp
°C
Dew
Point
°C
Rel
Hum
%
Delta-T

°C
Wind Press
QNH
hPa
Press
MSL
hPa
Rain
since
9 am
mm
Dir
 
Spd
km/h
Gust
km/h
Spd
kts
Gust
kts
29/11:00pm 23.8 23.6 17.5 68 3.9 E 15 19 8 10 1022.5 - 0.0
29/10:30pm 23.9 23.3 17.6 68 3.9 E 17 24 9 13 1022.4 - 0.0
29/10:00pm 23.8 23.5 17.3 67 4.0 E 15 20 8 11 1022.6 - 0.0
29/09:30pm 23.9 23.9 18.1 70 3.6 E 15 20 8 11 1022.8 - 0.0
29/09:00pm 23.8 23.5 17.3 67 4.0 E 15 20 8 11 1022.9 1022.9 0.0
29/08:30pm 23.5 23.4 17.0 67 4.0 E 13 17 7 9 1022.9 - 0.0
29/08:00pm 23.8 23.5 17.3 67 4.0 ENE 15 19 8 10 1022.5 - 0.0
29/07:30pm 23.9 23.5 17.2 66 4.1 E 15 20 8 11 1022.3 - 0.0
29/07:00pm 24.1 23.2 16.9 64 4.4 E 17 22 9 12 1021.9 - 0.0
29/06:30pm 24.1 23.1 16.6 63 4.6 E 17 20 9 11 1021.6 - 0.0
29/05:30pm 24.9 24.3 16.6 60 5.1 E 15 20 8 11 1021.3 - 0.0
29/05:00pm 25.4 24.7 16.5 58 5.5 E 15 20 8 11 1021.2 - 0.0
29/04:30pm 26.1 25.2 15.8 53 6.3 E 15 20 8 11 1021.2 - 0.0
29/04:00pm 26.5 25.6 15.8 51 6.5 E 15 20 8 11 1021.2 - 0.0
29/03:30pm 27.0 26.0 15.7 50 6.9 E 15 20 8 11 1020.9 - 0.0
29/03:00pm 27.1 25.9 16.1 51 6.7 E 17 22 9 12 1021.0 1021.0 0.0
29/02:30pm 27.1 25.7 15.5 49 7.1 E 17 22 9 12 1021.0 - 0.0
29/02:00pm 27.2 25.6 15.9 50 6.9 E 19 24 10 13 1021.4 - 0.0
29/01:30pm 27.5 25.9 16.1 49 7.0 E 19 24 10 13 1021.6 - 0.0
29/01:00pm 27.3 25.2 15.3 48 7.3 E 20 28 11 15 1021.8 - 0.0
29/12:30pm 27.6 26.7 16.9 52 6.7 E 17 24 9 13 1022.2 - 0.0
29/12:00pm 27.8 26.6 17.0 51 6.7 E 19 22 10 12 1022.6 1022.6 0.0
29/11:30am 28.1 27.4 18.2 55 6.3 E 19 26 10 14 1022.8 - 0.0
29/11:00am 27.8 26.7 17.3 52 6.6 E 19 24 10 13 1023.2 - 0.0
29/10:30am 28.1 27.8 18.2 55 6.3 E 17 24 9 13 1023.3 - 0.0
29/10:00am 27.3 26.2 17.8 56 6.0 E 20 28 11 15 1023.3 - 0.0
29/09:30am 26.8 25.5 17.3 56 5.9 E 20 28 11 15 1023.2 - 0.0
29/09:00am 26.2 25.1 17.8 60 5.3 E 20 28 11 15 1023.1 1023.1 0.2
29/08:30am 27.3 26.6 18.3 58 5.7 E 19 24 10 13 1023.0 - 0.2
29/08:00am 26.8 26.0 18.1 59 5.5 E 19 26 10 14 1022.6 - 0.2
29/07:30am 25.7 25.2 17.9 62 4.9 ESE 17 22 9 12 1022.2 - 0.2
29/07:00am 24.9 24.1 17.1 62 4.8 E 17 24 9 13 1021.7 - 0.2
29/06:30am 24.7 23.8 16.9 62 4.8 E 17 22 9 12 1021.2 - 0.2
29/06:00am 24.3 23.7 17.5 66 4.2 E 17 22 9 12 1020.9 1020.9 0.2
29/05:30am 24.1 23.3 17.1 65 4.3 E 17 24 9 13 1020.6 - 0.2
29/05:00am 24.1 22.9 17.1 65 4.3 E 19 24 10 13 1020.3 - 0.2
29/04:30am 24.4 23.5 16.9 63 4.6 E 17 24 9 13 1019.8 - 0.2
29/04:00am 24.4 23.7 17.4 65 4.4 E 17 20 9 11 1019.6 - 0.2
29/03:30am 24.3 23.2 17.3 65 4.3 E 19 28 10 15 1019.5 - 0.2
29/03:00am 24.3 22.9 17.1 64 4.4 E 20 30 11 16 1019.5 1019.5 0.2
29/02:30am 24.2 22.9 16.7 63 4.6 E 19 24 10 13 1019.8 - 0.2
29/02:00am 24.3 23.5 17.1 64 4.5 ESE 17 22 9 12 1020.2 - 0.2
29/01:30am 24.4 23.2 17.1 63 4.5 E 19 24 10 13 1020.1 - 0.2
29/01:00am 24.4 23.2 17.1 63 4.5 E 19 24 10 13 1020.2 - 0.2
29/12:30am 24.5 23.4 17.2 63 4.5 E 19 26 10 14 1020.5 - 0.2
29/12:00am 24.4 23.4 17.6 66 4.2 E 19 26 10 14 1020.7 1020.7 0.2
 
Date/Time
EST
Tmp

°C
App
Tmp
°C
Dew
Point
°C
Rel
Hum
%
Delta-T

°C
Wind Press
QNH
hPa
Press
MSL
hPa
Rain
since
9 am
mm
Dir
 
Spd
km/h
Gust
km/h
Spd
kts
Gust
kts
28/11:30pm 24.7 24.0 17.4 64 4.5 E 17 22 9 12 1021.0 - 0.2
28/11:00pm 24.7 23.4 16.7 61 4.9 E 19 26 10 14 1021.1 - 0.2
28/10:30pm 24.6 23.4 17.1 63 4.6 E 19 26 10 14 1021.1 - 0.2
28/10:00pm 24.7 23.8 16.9 62 4.8 ESE 17 24 9 13 1021.1 - 0.2
28/09:30pm 24.7 23.9 17.2 63 4.7 E 17 24 9 13 1021.1 - 0.2
28/09:00pm 24.7 24.2 17.7 65 4.4 E 17 26 9 14 1020.9 1020.9 0.2
28/08:30pm 24.6 24.3 18.3 68 4.0 ESE 17 22 9 12 1020.8 - 0.2
28/08:00pm 24.9 24.5 19.3 71 3.6 E 20 26 11 14 1020.5 - 0.2
28/07:30pm 25.0 24.5 18.7 68 4.0 ESE 19 28 10 15 1020.3 - 0.2
28/07:00pm 24.9 24.9 19.0 69 3.8 ESE 17 24 9 13 1019.8 - 0.2
28/06:30pm 25.2 24.8 18.9 68 4.0 ESE 19 28 10 15 1019.6 - 0.2
28/06:00pm 25.2 25.0 19.3 70 3.8 ESE 19 24 10 13 1019.4 1019.4 0.2
28/05:30pm 25.2 24.7 19.1 69 3.9 ESE 20 28 11 15 1019.0 - 0.2
28/05:00pm 25.7 25.4 19.1 67 4.2 ESE 19 26 10 14 1018.8 - 0.2
28/04:30pm 26.4 25.9 19.0 63 4.7 ESE 20 26 11 14 1018.5 - 0.2
28/04:00pm 27.2 26.7 19.0 61 5.3 ESE 20 28 11 15 1018.5 - 0.2
28/03:30pm 26.4 25.9 19.0 63 4.7 ESE 20 28 11 15 1018.5 - 0.2
28/03:00pm 26.6 26.1 19.2 64 4.8 ESE 20 30 11 16 1018.6 1018.6 0.2
28/02:30pm 27.3 27.0 20.4 66 4.5 ESE 22 30 12 16 1018.7 - 0.2
28/02:00pm 26.4 25.7 20.3 69 4.0 ESE 24 32 13 17 1018.9 - 0.2
28/01:30pm 25.9 25.2 20.2 71 3.7 ESE 24 30 13 16 1019.1 - 0.2
28/01:00pm 26.1 26.0 20.7 72 3.5 ESE 22 32 12 17 1019.1 - 0.2
28/12:30pm 26.9 26.7 21.2 71 3.8 ESE 24 32 13 17 1019.3 - 0.2
28/12:00pm 27.8 28.8 22.1 71 3.8 ESE 20 30 11 16 1019.6 1019.6 0.2
28/11:30am 25.4 26.6 21.5 79 2.6 ESE 17 22 9 12 1020.0 - 0.2
28/11:00am 26.6 26.3 20.4 69 4.1 ESE 22 32 12 17 1020.3 - 0.0
28/10:30am 28.8 29.7 21.6 65 4.8 E 19 26 10 14 1020.6 - 0.0
28/10:00am 28.2 28.1 20.0 61 5.4 E 20 26 11 14 1020.5 - 0.0
28/09:30am 28.6 29.2 21.1 64 5.0 ESE 19 26 10 14 1020.6 - 0.0
28/09:00am 28.3 29.4 22.3 70 4.0 ESE 20 28 11 15 1020.5 1020.5 0.0
28/08:30am 27.4 27.4 21.0 68 4.2 ESE 22 28 12 15 1020.2 - 0.0
28/08:00am 26.9 27.1 20.5 68 4.2 ESE 20 26 11 14 1019.9 - 0.0
28/07:30am 25.8 26.2 20.6 73 3.4 SE 19 24 10 13 1019.5 - 0.0
28/07:00am 26.2 27.5 21.6 76 3.1 SE 17 24 9 13 1019.0 - 0.0
28/06:30am 25.5 26.8 21.6 79 2.6 SE 17 22 9 12 1018.7 - 0.0
28/06:00am 24.9 25.6 21.2 80 2.4 ESE 19 24 10 13 1018.4 1018.4 0.0
28/05:30am 22.9 26.1 21.2 90 1.1 SW 6 9 3 5 1018.3 - 0.0
28/05:00am 23.1 26.1 21.2 89 1.2 SW 7 9 4 5 1018.0 - 0.0
28/04:30am 23.0 25.5 21.1 89 1.2 SSW 9 11 5 6 1017.6 - 0.0
28/04:16am 23.3 26.0 21.4 89 1.3 S 9 13 5 7 1017.4 - 0.0
28/04:00am 23.3 26.4 21.4 89 1.3 SSW 7 11 4 6 1017.3 - 0.0
28/03:30am 23.3 26.0 21.4 89 1.3 SSW 9 11 5 6 1017.2 - 0.0
28/03:00am 23.2 25.6 21.5 90 1.1 SW 11 13 6 7 1017.2 1017.2 0.0
28/02:46am 23.2 26.5 21.5 90 1.1 SW 6 7 3 4 1017.2 - 0.0
28/02:43am 23.2 26.5 21.5 90 1.1 SW 6 9 3 5 1017.2 - 0.0
28/02:30am 23.3 26.1 21.6 90 1.1 SW 9 11 5 6 1017.3 - 0.0
28/02:12am 23.4 26.2 21.5 89 1.3 SW 9 11 5 6 1017.4 - 0.0
28/02:00am 23.5 26.3 21.6 89 1.3 SW 9 11 5 6 1017.5 - 0.0
28/01:39am 23.7 26.9 21.6 88 1.4 SW 7 9 4 5 1017.6 - 0.0
28/01:30am 23.8 26.7 21.7 88 1.4 SW 9 11 5 6 1017.6 - 0.0
28/01:04am 24.1 27.0 21.8 87 1.5 SW 9 13 5 7 1017.7 - 0.0
28/01:00am 24.1 26.9 21.6 86 1.7 SW 9 11 5 6 1017.7 - 0.0
28/12:30am 25.4 27.4 21.5 79 2.6 SE 13 17 7 9 1017.7 - 0.0
28/12:00am 25.4 27.7 21.3 78 2.7 SE 11 13 6 7 1018.0 1018.0 0.0
 
Date/Time
EST
Tmp

°C
App
Tmp
°C
Dew
Point
°C
Rel
Hum
%
Delta-T

°C
Wind Press
QNH
hPa
Press
MSL
hPa
Rain
since
9 am
mm
Dir
 
Spd
km/h
Gust
km/h
Spd
kts
Gust
kts
27/11:30pm 25.7 27.6 21.4 77 2.8 ESE 13 17 7 9 1018.3 - 0.0
27/11:00pm 25.5 27.9 21.6 79 2.6 ESE 11 15 6 8 1018.6 - 0.0
27/10:30pm 25.7 27.7 21.6 78 2.7 ESE 13 19 7 10 1018.6 - 0.0
27/10:00pm 25.6 26.9 21.7 79 2.6 ESE 17 22 9 12 1018.6 - 0.0
27/09:30pm 25.6 26.9 21.7 79 2.6 ESE 17 24 9 13 1018.7 - 0.0
27/09:00pm 25.8 27.5 22.3 81 2.3 ESE 17 24 9 13 1018.7 1018.7 0.0
27/08:59pm 25.8 27.5 22.3 81 2.3 ESE 17 24 9 13 1018.7 - 0.0
27/08:45pm 25.9 27.2 22.4 81 2.4 ESE 19 28 10 15 1018.8 - 0.0
27/08:44pm 25.9 27.2 22.4 81 2.4 ESE 19 28 10 15 1018.8 - 0.0
27/08:30pm 25.9 27.1 22.2 80 2.5 ESE 19 26 10 14 1018.6 - 0.0
27/08:00pm 26.1 28.9 23.0 83 2.1 ESE 13 17 7 9 1018.3 - 0.0
27/07:53pm 26.1 28.3 23.2 84 2.0 ESE 17 24 9 13 1018.4 - 0.0
27/07:30pm 26.2 28.2 22.9 82 2.2 ESE 17 24 9 13 1018.1 - 0.0
27/07:00pm 26.2 27.3 22.3 79 2.6 ESE 20 26 11 14 1017.9 - 0.0
27/06:30pm 26.1 27.2 22.4 80 2.5 SE 20 28 11 15 1017.5 - 0.0
27/06:07pm 26.2 27.1 22.7 81 2.4 ESE 22 30 12 16 1017.1 - 0.0
27/06:00pm 26.2 27.1 22.7 81 2.4 SE 22 30 12 16 1017.1 1017.1 0.0
27/05:47pm 26.3 26.7 22.4 79 2.6 SE 24 33 13 18 1016.8 - 0.0
27/05:44pm 26.2 26.5 22.3 79 2.6 SE 24 33 13 18 1016.8 - 0.0
27/05:30pm 26.5 27.9 22.8 80 2.5 SE 20 35 11 19 1016.7 - 0.0
27/05:29pm 26.5 28.1 22.8 80 2.5 SE 19 35 10 19 1016.7 - 0.0
27/05:00pm 27.3 30.0 22.9 77 3.0 E 13 17 7 9 1016.5 - 0.0
27/04:30pm 28.4 30.9 23.1 73 3.6 ENE 15 17 8 9 1016.0 - 0.0
27/04:00pm 28.4 31.5 23.5 75 3.4 ENE 13 17 7 9 1015.7 - 0.0
27/03:30pm 28.5 30.8 23.4 74 3.5 NE 17 20 9 11 1015.6 - 0.0
27/03:00pm 29.7 32.3 24.6 74 3.6 NE 19 24 10 13 1015.4 1015.4 0.0
27/02:30pm 27.8 29.7 23.4 77 3.0 NNE 19 20 10 11 1015.5 - 0.0

Latest Capital City Observations: Canberra | Sydney | Melbourne | Brisbane | Adelaide | Perth | Hobart | Darwin

Other Formats:

Comma delimited format used in spreadsheet applications
http://www.bom.gov.au/fwo/IDQ60901/IDQ60901.94569.axf

JavaScript Object Notation format (JSON) in row-major order
http://www.bom.gov.au/fwo/IDQ60901/IDQ60901.94569.json